createdAt,value
2022-10-08T00:01:28.993Z,1.50
2022-10-08T00:03:56.886Z,2.90
2022-10-08T00:06:28.667Z,1.88
2022-10-08T00:09:04.885Z,1.75
2022-10-08T00:11:33.809Z,2.35
2022-10-08T00:14:02.069Z,2.20
2022-10-08T00:16:33.402Z,1.80
2022-10-08T00:19:05.464Z,2.10
2022-10-08T00:21:37.529Z,1.98
2022-10-08T00:24:06.828Z,1.75
2022-10-08T00:26:39.968Z,1.80
2022-10-08T00:29:13.655Z,1.73
2022-10-08T00:31:42.054Z,2.28
2022-10-08T00:34:11.309Z,2.00
2022-10-08T00:36:40.646Z,1.80
2022-10-08T00:39:15.855Z,2.00
2022-10-08T00:41:44.801Z,2.00
2022-10-08T00:44:55.333Z,2.57
2022-10-08T00:47:32.111Z,1.77
2022-10-08T00:50:25.613Z,3.60
2022-10-08T00:52:56.746Z,2.00
2022-10-08T00:55:28.033Z,2.22
2022-10-08T00:58:01.115Z,1.83
2022-10-08T01:00:29.208Z,1.95
2022-10-08T01:02:56.036Z,1.30
2022-10-08T01:05:47.246Z,1.95
2022-10-08T01:08:38.792Z,1.77
2022-10-08T01:11:39.692Z,2.40
2022-10-08T01:14:20.854Z,3.90
2022-10-08T01:17:11.120Z,2.47
2022-10-08T01:19:56.232Z,3.35
2022-10-08T01:22:38.781Z,2.20
2022-10-08T01:25:35.511Z,3.50
2022-10-08T01:28:24.216Z,2.60
2022-10-08T01:31:15.775Z,2.85
2022-10-08T01:34:05.649Z,4.65
2022-10-08T01:41:33.888Z,5.65
2022-10-08T01:44:13.721Z,6.22
2022-10-08T01:49:17.391Z,5.32
2022-10-08T01:52:00.050Z,5.97
2022-10-08T01:54:30.153Z,7.53
2022-10-08T01:57:01.185Z,7.30
2022-10-08T01:59:40.361Z,6.63
2022-10-08T02:02:27.888Z,7.03
2022-10-08T02:04:57.070Z,5.47
2022-10-08T02:07:33.051Z,6.25
2022-10-08T02:10:13.152Z,6.32
2022-10-08T02:12:48.316Z,5.68
2022-10-08T02:15:40.639Z,7.18
2022-10-08T02:18:18.229Z,4.82
2022-10-08T02:20:53.329Z,4.75
2022-10-08T02:23:40.873Z,5.00
2022-10-08T02:26:25.841Z,5.20
2022-10-08T02:29:02.598Z,5.15
2022-10-08T02:31:49.384Z,4.43
2022-10-08T02:34:39.869Z,5.22
2022-10-08T02:37:27.193Z,4.50
2022-10-08T02:40:08.481Z,4.05
2022-10-08T02:42:40.012Z,4.63
2022-10-08T02:45:27.052Z,4.78
2022-10-08T02:48:04.290Z,4.80
2022-10-08T02:50:33.107Z,4.60
2022-10-08T02:53:01.249Z,5.50
2022-10-08T02:55:29.154Z,4.15
2022-10-08T02:58:04.879Z,5.55
2022-10-08T03:00:37.373Z,4.75
2022-10-08T03:03:15.859Z,4.53
2022-10-08T03:05:44.438Z,4.78
2022-10-08T03:08:14.919Z,4.68
2022-10-08T03:10:45.505Z,3.97
2022-10-08T03:13:13.764Z,4.25
2022-10-08T03:15:42.809Z,4.95
2022-10-08T03:18:12.179Z,5.05
2022-10-08T03:20:44.844Z,3.88
2022-10-08T03:23:13.482Z,4.40
2022-10-08T03:25:40.509Z,4.53
2022-10-08T03:28:09.475Z,4.68
2022-10-08T03:30:36.332Z,3.75
2022-10-08T03:33:05.321Z,3.38
2022-10-08T03:35:32.431Z,5.23
2022-10-08T03:38:00.281Z,4.03
2022-10-08T03:40:29.333Z,3.75
2022-10-08T03:43:01.947Z,3.95
2022-10-08T03:45:34.710Z,3.75
2022-10-08T03:48:01.575Z,3.70
2022-10-08T03:50:31.494Z,4.47
2022-10-08T03:52:58.121Z,4.10
2022-10-08T03:55:25.980Z,3.08
2022-10-08T03:57:53.136Z,3.25
2022-10-08T04:00:19.876Z,4.22
2022-10-08T04:02:52.476Z,3.72
2022-10-08T04:05:22.310Z,3.33
2022-10-08T04:10:24.788Z,3.25
2022-10-08T04:12:56.598Z,4.05
2022-10-08T04:15:23.622Z,4.15
2022-10-08T04:17:50.293Z,3.60
2022-10-08T04:20:20.182Z,3.78
2022-10-08T04:22:49.014Z,4.13
2022-10-08T04:25:16.406Z,3.67
2022-10-08T04:27:43.460Z,3.80
2022-10-08T04:30:11.688Z,2.67
2022-10-08T04:32:41.601Z,4.45
2022-10-08T04:35:09.151Z,3.78
2022-10-08T04:37:36.087Z,2.92
2022-10-08T04:40:04.129Z,3.45
2022-10-08T04:42:33.959Z,4.57
2022-10-08T04:47:29.568Z,3.40
2022-10-08T04:50:03.399Z,3.97
2022-10-08T04:52:31.609Z,2.85
2022-10-08T04:54:59.408Z,3.85
2022-10-08T04:57:28.427Z,4.53
2022-10-08T05:00:17.642Z,3.27
2022-10-08T05:02:55.833Z,4.10
2022-10-08T05:06:01.316Z,4.68
2022-10-08T05:08:29.172Z,4.25
2022-10-08T05:11:02.850Z,4.63
2022-10-08T05:13:33.056Z,5.85
2022-10-08T05:16:09.190Z,5.93
2022-10-08T05:18:42.645Z,5.85
2022-10-08T05:21:11.999Z,5.00
2022-10-08T05:23:40.278Z,4.78
2022-10-08T05:26:41.461Z,5.65
2022-10-08T05:29:29.697Z,6.00
2022-10-08T05:32:09.009Z,6.13
2022-10-08T05:35:13.200Z,6.22
2022-10-08T05:37:40.629Z,5.60
2022-10-08T05:40:08.643Z,6.78
2022-10-08T05:43:23.895Z,6.05
2022-10-08T05:45:52.134Z,5.57
2022-10-08T05:48:20.801Z,6.07
2022-10-08T05:50:48.677Z,5.45
2022-10-08T05:53:17.360Z,7.78
2022-10-08T05:55:47.285Z,4.93
2022-10-08T05:58:17.993Z,4.22
2022-10-08T06:03:34.159Z,5.25
2022-10-08T06:06:08.918Z,4.90
2022-10-08T06:08:43.193Z,6.43
2022-10-08T06:11:10.957Z,4.63
2022-10-08T06:13:39.697Z,6.03
2022-10-08T06:16:10.987Z,5.00
2022-10-08T06:18:45.604Z,4.88
2022-10-08T06:21:23.691Z,5.10
2022-10-08T06:24:03.037Z,5.10
2022-10-08T06:26:36.276Z,4.47
2022-10-08T06:29:11.065Z,4.28
2022-10-08T06:31:54.457Z,4.03
2022-10-08T06:34:21.599Z,4.38
2022-10-08T06:36:56.298Z,4.85
2022-10-08T06:39:47.557Z,4.03
2022-10-08T06:42:16.254Z,5.82
2022-10-08T06:44:45.277Z,4.13
2022-10-08T06:47:15.215Z,4.68
2022-10-08T06:49:47.761Z,3.70
2022-10-08T06:52:15.469Z,3.38
2022-10-08T06:54:45.350Z,2.90
2022-10-08T06:57:13.244Z,4.85
2022-10-08T06:59:40.312Z,3.53
2022-10-08T07:02:06.950Z,4.85
2022-10-08T07:04:33.918Z,5.07
2022-10-08T07:07:00.593Z,4.15
2022-10-08T07:09:29.478Z,3.33
2022-10-08T07:11:56.321Z,2.70
2022-10-08T07:14:23.241Z,3.25
2022-10-08T07:16:51.379Z,3.45
2022-10-08T07:19:18.298Z,3.88
2022-10-08T07:21:48.240Z,6.57
2022-10-08T07:24:18.133Z,3.35
2022-10-08T07:26:50.809Z,2.92
2022-10-08T07:29:19.028Z,3.47
2022-10-08T07:31:47.115Z,2.78
2022-10-08T07:34:19.783Z,2.78
2022-10-08T07:36:47.679Z,3.13
2022-10-08T07:39:21.874Z,2.83
2022-10-08T07:42:08.476Z,2.50
2022-10-08T07:44:35.624Z,3.00
2022-10-08T07:47:03.364Z,3.05
2022-10-08T07:49:32.010Z,3.05
2022-10-08T07:51:58.685Z,3.22
2022-10-08T07:54:27.340Z,3.05
2022-10-08T07:57:02.041Z,3.42
2022-10-08T07:59:30.970Z,3.05
2022-10-08T08:01:57.697Z,3.67
2022-10-08T08:04:40.112Z,3.17
2022-10-08T08:07:08.769Z,3.22
2022-10-08T08:09:41.181Z,3.17
2022-10-08T08:12:09.175Z,2.92
2022-10-08T08:14:59.914Z,3.35
2022-10-08T08:17:27.350Z,2.35
2022-10-08T08:19:55.176Z,3.03
2022-10-08T08:22:27.802Z,2.63
2022-10-08T08:24:54.597Z,2.17
2022-10-08T08:27:28.642Z,2.33
2022-10-08T08:30:08.453Z,1.83
2022-10-08T08:32:42.533Z,1.58
2022-10-08T08:35:11.553Z,1.80
2022-10-08T08:37:47.229Z,1.80
2022-10-08T08:40:15.048Z,3.00
2022-10-08T08:42:54.782Z,2.72
2022-10-08T08:45:45.950Z,2.35
2022-10-08T08:48:24.652Z,1.40
2022-10-08T08:50:54.830Z,1.70
2022-10-08T08:53:22.624Z,2.10
2022-10-08T08:55:54.070Z,1.75
2022-10-08T08:58:46.469Z,3.90
2022-10-08T09:01:19.432Z,1.40
2022-10-08T09:03:56.635Z,2.10
2022-10-08T09:06:27.745Z,1.63
2022-10-08T09:09:31.005Z,1.58
2022-10-08T09:11:58.880Z,1.63
2022-10-08T09:14:45.941Z,1.30
2022-10-08T09:17:18.951Z,1.30
2022-10-08T09:19:52.359Z,1.50
2022-10-08T09:22:31.628Z,2.05
2022-10-08T09:25:06.433Z,2.00
2022-10-08T09:27:57.749Z,1.40
2022-10-08T09:30:37.276Z,1.45
2022-10-08T09:33:29.530Z,1.63
2022-10-08T09:36:06.857Z,1.10
2022-10-08T09:38:36.882Z,1.35
2022-10-08T09:41:19.927Z,2.17
2022-10-08T09:44:11.141Z,2.22
2022-10-08T09:46:38.993Z,1.52
2022-10-08T09:49:49.710Z,1.48
2022-10-08T09:52:22.257Z,1.50
2022-10-08T09:54:54.839Z,2.20
2022-10-08T09:57:22.833Z,1.40
2022-10-08T09:59:57.015Z,2.55
2022-10-08T10:02:30.945Z,1.50
2022-10-08T10:04:59.359Z,1.77
2022-10-08T10:07:38.038Z,1.45
2022-10-08T10:10:11.647Z,1.75
2022-10-08T10:12:42.191Z,1.77
2022-10-08T10:15:18.127Z,1.83
2022-10-08T10:17:57.359Z,1.77
2022-10-08T10:20:39.505Z,1.45
2022-10-08T10:23:26.349Z,1.92
2022-10-08T10:26:09.012Z,2.08
2022-10-08T10:28:56.392Z,1.48
2022-10-08T10:31:46.997Z,1.38
2022-10-08T10:34:15.621Z,1.80
2022-10-08T10:36:57.264Z,1.15
2022-10-08T10:39:38.129Z,2.25
2022-10-08T10:42:47.486Z,1.50
2022-10-08T10:45:25.523Z,1.38
2022-10-08T10:48:19.222Z,1.52
2022-10-08T10:51:04.978Z,1.70
2022-10-08T10:53:45.037Z,1.33
2022-10-08T10:56:14.591Z,1.90
2022-10-08T10:59:07.411Z,1.42
2022-10-08T11:01:46.332Z,4.38
2022-10-08T11:04:41.199Z,1.48
2022-10-08T11:07:26.968Z,1.38
2022-10-08T11:10:17.513Z,1.30
2022-10-08T11:13:17.914Z,1.80
2022-10-08T11:16:01.568Z,1.88
2022-10-08T11:18:57.995Z,1.70
2022-10-08T11:21:49.503Z,1.65
2022-10-08T11:24:25.152Z,1.45
2022-10-08T11:27:07.497Z,0.90
2022-10-08T11:29:45.459Z,1.10
2022-10-08T11:32:16.414Z,1.40
2022-10-08T11:34:54.916Z,1.00
2022-10-08T11:37:50.208Z,1.73
2022-10-08T11:40:23.301Z,1.15
2022-10-08T11:42:50.512Z,1.88
2022-10-08T11:45:23.460Z,2.67
2022-10-08T11:47:57.455Z,1.10
2022-10-08T11:50:37.351Z,1.55
2022-10-08T11:53:10.442Z,1.20
2022-10-08T11:55:38.794Z,1.27
2022-10-08T11:58:16.950Z,1.00
2022-10-08T12:00:46.683Z,1.33
2022-10-08T12:03:28.097Z,1.35
2022-10-08T12:05:59.637Z,1.92
2022-10-08T12:08:55.595Z,1.15
2022-10-08T12:11:37.629Z,0.90
2022-10-08T12:14:19.592Z,0.90
2022-10-08T12:20:16.984Z,1.27
2022-10-08T12:22:45.661Z,1.17
2022-10-08T12:25:33.155Z,1.85
2022-10-08T12:28:21.712Z,1.17
2022-10-08T12:30:53.392Z,1.35
2022-10-08T12:33:21.077Z,1.20
2022-10-08T12:36:00.251Z,1.30
2022-10-08T12:38:51.041Z,1.30
2022-10-08T12:42:06.315Z,1.27
2022-10-08T12:44:47.973Z,1.20
2022-10-08T12:47:30.051Z,1.67
2022-10-08T12:49:57.993Z,1.02
2022-10-08T12:52:35.366Z,0.77
2022-10-08T12:55:06.246Z,0.82
2022-10-08T12:57:40.396Z,1.65
2022-10-08T13:00:29.139Z,1.23
2022-10-08T13:03:12.308Z,1.33
2022-10-08T13:05:41.178Z,0.90
2022-10-08T13:08:27.636Z,0.70
2022-10-08T13:10:55.805Z,1.90
2022-10-08T13:13:51.372Z,0.93
2022-10-08T13:16:24.381Z,1.20
2022-10-08T13:18:54.798Z,1.17
2022-10-08T13:22:03.003Z,1.35
2022-10-08T13:24:36.976Z,1.10
2022-10-08T13:27:29.777Z,1.63
2022-10-08T13:29:57.890Z,1.70
2022-10-08T13:32:48.917Z,1.20
2022-10-08T13:35:27.985Z,1.10
2022-10-08T13:37:56.334Z,1.42
2022-10-08T13:40:25.777Z,1.20
2022-10-08T13:43:35.437Z,1.15
2022-10-08T13:46:02.351Z,1.13
2022-10-08T13:48:29.131Z,1.67
2022-10-08T13:50:57.520Z,1.30
2022-10-08T13:53:30.868Z,1.02
2022-10-08T13:56:00.860Z,1.23
2022-10-08T13:58:34.994Z,1.35
2022-10-08T14:01:02.055Z,1.23
2022-10-08T14:03:31.103Z,1.23
2022-10-08T14:06:00.174Z,1.35
2022-10-08T14:08:31.357Z,1.00
2022-10-08T14:11:00.495Z,1.30
2022-10-08T14:13:29.265Z,0.85
2022-10-08T14:15:56.316Z,1.00
2022-10-08T14:18:26.593Z,1.38
2022-10-08T14:20:54.338Z,1.25
2022-10-08T14:23:22.209Z,1.00
2022-10-08T14:25:56.217Z,0.85
2022-10-08T14:28:29.019Z,0.98
2022-10-08T14:30:58.277Z,0.90
2022-10-08T14:33:24.946Z,0.70
2022-10-08T14:35:52.942Z,1.08
2022-10-08T14:38:22.878Z,0.90
2022-10-08T14:40:52.874Z,1.15
2022-10-08T14:43:30.096Z,0.95
2022-10-08T14:46:10.335Z,1.20
2022-10-08T14:48:40.301Z,1.50
2022-10-08T14:51:07.227Z,1.00
2022-10-08T14:53:38.949Z,1.30
2022-10-08T14:56:12.440Z,1.50
2022-10-08T14:58:40.682Z,1.00
2022-10-08T15:01:07.439Z,1.02
2022-10-08T15:03:34.522Z,1.20
2022-10-08T15:06:01.569Z,1.00
2022-10-08T15:08:28.801Z,1.35
2022-10-08T15:10:55.539Z,1.45
2022-10-08T15:13:22.309Z,1.20
2022-10-08T15:15:49.209Z,0.98
2022-10-08T15:18:16.246Z,3.78
2022-10-08T15:20:43.298Z,2.72
2022-10-08T15:23:10.527Z,1.52
2022-10-08T15:25:37.388Z,1.20
2022-10-08T15:28:05.342Z,1.70
2022-10-08T15:30:32.086Z,1.60
2022-10-08T15:33:03.848Z,1.15
2022-10-08T15:35:34.772Z,2.22
2022-10-08T15:38:01.813Z,1.70
2022-10-08T15:40:31.997Z,1.35
2022-10-08T15:42:59.001Z,4.95
2022-10-08T15:45:26.126Z,1.83
2022-10-08T15:47:53.131Z,1.98
2022-10-08T15:50:20.166Z,1.95
2022-10-08T15:52:47.416Z,1.40
2022-10-08T15:55:16.031Z,1.30
2022-10-08T15:57:42.944Z,1.30
2022-10-08T16:00:10.153Z,0.98
2022-10-08T16:02:37.046Z,0.90
2022-10-08T16:05:04.365Z,1.45
2022-10-08T16:07:31.113Z,1.40
2022-10-08T16:09:58.129Z,1.58
2022-10-08T16:12:24.905Z,1.70
2022-10-08T16:14:51.831Z,3.03
2022-10-08T16:17:18.936Z,2.20
2022-10-08T16:19:45.942Z,1.60
2022-10-08T16:22:13.810Z,2.20
2022-10-08T16:24:40.849Z,0.98
2022-10-08T16:27:07.985Z,1.08
2022-10-08T16:29:35.102Z,1.55
2022-10-08T16:32:02.118Z,1.75
2022-10-08T16:34:30.558Z,1.48
2022-10-08T16:36:59.519Z,1.63
2022-10-08T16:39:26.497Z,1.20
2022-10-08T16:41:53.494Z,1.65
2022-10-08T16:44:21.306Z,2.00
2022-10-08T16:46:52.285Z,1.40
2022-10-08T16:49:25.855Z,1.27
2022-10-08T16:52:08.061Z,1.33
2022-10-08T16:54:35.306Z,2.45
2022-10-08T16:57:02.380Z,1.48
2022-10-08T16:59:29.901Z,1.10
2022-10-08T17:01:59.120Z,1.55
2022-10-08T17:04:28.161Z,2.63
2022-10-08T17:06:55.444Z,1.35
2022-10-08T17:09:22.325Z,1.73
2022-10-08T17:11:49.228Z,3.35
2022-10-08T17:14:16.697Z,2.35
2022-10-08T17:16:45.624Z,1.48
2022-10-08T17:19:13.070Z,2.20
2022-10-08T17:21:40.196Z,1.77
2022-10-08T17:24:07.195Z,1.45
2022-10-08T17:26:34.099Z,1.73
2022-10-08T17:29:06.529Z,1.40
2022-10-08T17:31:34.305Z,1.40
2022-10-08T17:34:01.853Z,1.67
2022-10-08T17:36:31.824Z,1.55
2022-10-08T17:39:00.696Z,2.25
2022-10-08T17:41:33.674Z,1.30
2022-10-08T17:44:03.016Z,1.52
2022-10-08T17:46:33.514Z,3.28
2022-10-08T17:49:00.301Z,1.70
2022-10-08T17:51:29.792Z,1.45
2022-10-08T17:54:06.351Z,1.80
2022-10-08T17:56:34.621Z,2.83
2022-10-08T17:59:01.804Z,2.58
2022-10-08T18:01:31.204Z,2.80
2022-10-08T18:04:03.682Z,1.83
2022-10-08T18:06:32.677Z,2.15
2022-10-08T18:09:02.312Z,1.95
2022-10-08T18:11:31.290Z,2.72
2022-10-08T18:13:58.364Z,2.50
2022-10-08T18:16:25.433Z,2.15
2022-10-08T18:18:53.231Z,2.03
2022-10-08T18:21:20.908Z,2.35
2022-10-08T18:23:48.614Z,2.10
2022-10-08T18:26:25.910Z,2.22
2022-10-08T18:28:58.421Z,2.60
2022-10-08T18:31:31.329Z,3.28
2022-10-08T18:34:09.429Z,3.65
2022-10-08T18:36:38.149Z,1.95
2022-10-08T18:39:07.652Z,3.42
2022-10-08T18:41:38.634Z,6.85
2022-10-08T18:44:06.370Z,3.85
2022-10-08T18:46:37.204Z,5.93
2022-10-08T18:49:05.354Z,5.10
2022-10-08T18:51:33.951Z,2.80
2022-10-08T18:54:03.757Z,2.88
2022-10-08T18:59:04.932Z,2.22
2022-10-08T19:01:34.741Z,2.63
2022-10-08T19:04:04.087Z,14.55
2022-10-08T19:06:35.878Z,17.98
2022-10-08T19:09:04.876Z,19.58
2022-10-08T19:11:44.714Z,10.03
2022-10-08T19:14:14.282Z,8.40
2022-10-08T19:16:41.588Z,6.43
2022-10-08T19:19:17.251Z,4.80
2022-10-08T19:21:44.921Z,4.97
2022-10-08T19:24:20.304Z,6.22
2022-10-08T19:26:48.990Z,3.97
2022-10-08T19:29:18.469Z,4.70
2022-10-08T19:31:50.126Z,4.13
2022-10-08T19:34:19.738Z,3.92
2022-10-08T19:36:48.062Z,5.15
2022-10-08T19:39:23.430Z,5.35
2022-10-08T19:41:50.421Z,6.32
2022-10-08T19:44:17.464Z,7.75
2022-10-08T19:46:44.663Z,12.77
2022-10-08T19:49:11.660Z,10.50
2022-10-08T19:51:39.077Z,9.82
2022-10-08T19:54:06.114Z,6.10
2022-10-08T19:56:33.051Z,7.20
2022-10-08T19:59:00.067Z,7.82
2022-10-08T20:01:33.929Z,6.35
2022-10-08T20:04:01.869Z,5.78
2022-10-08T20:06:31.491Z,5.88
2022-10-08T20:09:01.429Z,5.60
2022-10-08T20:11:30.233Z,5.78
2022-10-08T20:13:58.005Z,5.72
2022-10-08T20:16:31.601Z,6.75
2022-10-08T20:19:01.747Z,6.13
2022-10-08T20:21:29.836Z,6.60
2022-10-08T20:23:57.091Z,6.03
2022-10-08T20:26:26.731Z,6.38
2022-10-08T20:28:58.134Z,6.72
2022-10-08T20:31:28.233Z,5.97
2022-10-08T20:34:01.043Z,6.55
2022-10-08T20:36:30.160Z,6.15
2022-10-08T20:38:57.613Z,6.35
2022-10-08T20:41:30.407Z,5.55
2022-10-08T20:44:02.693Z,6.32
2022-10-08T20:46:32.360Z,5.15
2022-10-08T20:48:59.746Z,4.85
2022-10-08T20:51:28.044Z,6.03
2022-10-08T20:54:03.484Z,6.45
2022-10-08T20:56:35.809Z,7.40
2022-10-08T20:59:05.824Z,5.90
2022-10-08T21:01:36.045Z,6.18
2022-10-08T21:04:03.272Z,6.60
2022-10-08T21:06:35.003Z,7.50
2022-10-08T21:09:01.727Z,6.78
2022-10-08T21:11:30.234Z,6.32
2022-10-08T21:13:59.483Z,6.07
2022-10-08T21:16:29.315Z,5.88
2022-10-08T21:21:29.962Z,3.85
2022-10-08T21:23:57.681Z,5.07
2022-10-08T21:26:25.852Z,6.03
2022-10-08T21:28:56.705Z,4.82
2022-10-08T21:31:24.754Z,6.72
2022-10-08T21:33:53.725Z,5.90
2022-10-08T21:36:23.823Z,5.70
2022-10-08T21:38:50.921Z,5.65
2022-10-08T21:41:20.197Z,6.22
2022-10-08T21:43:56.706Z,5.03
2022-10-08T21:46:27.065Z,5.88
2022-10-08T21:48:55.217Z,5.82
2022-10-08T21:51:22.789Z,6.32
2022-10-08T21:53:51.972Z,5.47
2022-10-08T21:56:24.917Z,5.28
2022-10-08T21:58:58.079Z,5.63
2022-10-08T22:01:53.156Z,8.68
2022-10-08T22:04:22.795Z,8.77
2022-10-08T22:06:54.612Z,8.70
2022-10-08T22:09:27.803Z,8.73
2022-10-08T22:11:56.460Z,7.53
2022-10-08T22:14:23.717Z,7.50
2022-10-08T22:16:51.145Z,9.18
2022-10-08T22:19:18.348Z,8.38
2022-10-08T22:21:45.688Z,8.07
2022-10-08T22:24:13.051Z,6.75
2022-10-08T22:26:42.974Z,7.28
2022-10-08T22:31:37.471Z,10.55
2022-10-08T22:34:04.260Z,9.18
2022-10-08T22:36:36.541Z,8.57
2022-10-08T22:39:03.659Z,8.23
2022-10-08T22:41:32.711Z,8.57
2022-10-08T22:44:00.883Z,15.47
2022-10-08T22:46:30.777Z,17.58
2022-10-08T22:51:29.501Z,12.57
2022-10-08T22:53:57.648Z,11.35
2022-10-08T22:56:29.149Z,11.65
2022-10-08T22:58:57.416Z,9.85
2022-10-08T23:01:25.599Z,9.10
2022-10-08T23:03:53.196Z,7.43
2022-10-08T23:06:23.632Z,6.95
2022-10-08T23:08:58.923Z,6.13
2022-10-08T23:11:26.510Z,5.78
2022-10-08T23:13:56.137Z,4.60
2022-10-08T23:16:23.938Z,5.13
2022-10-08T23:18:57.024Z,4.68
2022-10-08T23:21:24.383Z,5.15
2022-10-08T23:23:53.609Z,4.35
2022-10-08T23:26:21.732Z,5.40
2022-10-08T23:28:54.468Z,5.18
2022-10-08T23:31:23.950Z,4.38
2022-10-08T23:33:52.722Z,4.57
2022-10-08T23:36:22.129Z,4.38
2022-10-08T23:38:49.698Z,4.40
2022-10-08T23:41:17.181Z,4.07
2022-10-08T23:43:46.759Z,3.95
2022-10-08T23:46:16.431Z,4.20
2022-10-08T23:48:43.413Z,5.30
2022-10-08T23:51:11.945Z,5.13
2022-10-08T23:53:39.474Z,5.13
2022-10-08T23:56:07.647Z,5.68
2022-10-08T23:58:35.070Z,5.35
